Map

Track Data

SID SEASON NUMBER BASIN SUBBASIN NAME ISO_TIME NATURE LAT LON WMO_WIND WMO_PRES WMO_AGENCY TRACK_TYPE DIST2LAND LANDFALL IFLAG USA_AGENCY USA_ATCF_ID USA_LAT USA_LON USA_RECORD USA_STATUS USA_WIND USA_PRES USA_SSHS USA_R34_NE USA_R34_SE USA_R34_SW USA_R34_NW USA_R50_NE USA_R50_SE USA_R50_SW USA_R50_NW USA_R64_NE USA_R64_SE USA_R64_SW USA_R64_NW USA_POCI USA_ROCI USA_RMW USA_EYE TOKYO_LAT TOKYO_LON TOKYO_GRADE TOKYO_WIND TOKYO_PRES TOKYO_R50_DIR TOKYO_R50_LONG TOKYO_R50_SHORT TOKYO_R30_DIR TOKYO_R30_LONG TOKYO_R30_SHORT TOKYO_LAND CMA_LAT CMA_LON CMA_CAT CMA_WIND CMA_PRES HKO_LAT HKO_LON HKO_CAT HKO_WIND HKO_PRES NEWDELHI_LAT NEWDELHI_LON NEWDELHI_GRADE NEWDELHI_WIND NEWDELHI_PRES NEWDELHI_CI NEWDELHI_DP NEWDELHI_POCI REUNION_LAT REUNION_LON REUNION_TYPE REUNION_WIND REUNION_PRES REUNION_TNUM REUNION_CI REUNION_RMW REUNION_R34_NE REUNION_R34_SE REUNION_R34_SW REUNION_R34_NW REUNION_R50_NE REUNION_R50_SE REUNION_R50_SW REUNION_R50_NW REUNION_R64_NE REUNION_R64_SE REUNION_R64_SW REUNION_R64_NW BOM_LAT BOM_LON BOM_TYPE BOM_WIND BOM_PRES BOM_TNUM BOM_CI BOM_RMW BOM_R34_NE BOM_R34_SE BOM_R34_SW BOM_R34_NW BOM_R50_NE BOM_R50_SE BOM_R50_SW BOM_R50_NW BOM_R64_NE BOM_R64_SE BOM_R64_SW BOM_R64_NW BOM_ROCI BOM_POCI BOM_EYE BOM_POS_METHOD BOM_PRES_METHOD NADI_LAT NADI_LON NADI_CAT NADI_WIND NADI_PRES WELLINGTON_LAT WELLINGTON_LON WELLINGTON_WIND WELLINGTON_PRES DS824_LAT DS824_LON DS824_STAGE DS824_WIND DS824_PRES TD9636_LAT TD9636_LON TD9636_STAGE TD9636_WIND TD9636_PRES TD9635_LAT TD9635_LON TD9635_WIND TD9635_PRES TD9635_ROCI NEUMANN_LAT NEUMANN_LON NEUMANN_CLASS NEUMANN_WIND NEUMANN_PRES MLC_LAT MLC_LON MLC_CLASS MLC_WIND MLC_PRES USA_GUST BOM_GUST BOM_GUST_PER REUNION_GUST REUNION_GUST_PER USA_SEAHGT USA_SEARAD_NE USA_SEARAD_SE USA_SEARAD_SW USA_SEARAD_NW STORM_SPEED STORM_DIR
1943226N17300 1943 52 NA NA NOT_NAMED 1943-08-13 12:00:00 TS 17.1000 -60.5000 35 hurdat_atl main 554 497 O_____________ hurdat_atl AL021943 17.1000 -60.5000 TS 35 0 11 291
1943226N17300 1943 52 NA CS NOT_NAMED 1943-08-13 15:00:00 TS 17.2906 -61.0246 main 497 441 P_____________ AL021943 17.2906 -61.0246 TS 35 0 10 293
1943226N17300 1943 52 NA CS NOT_NAMED 1943-08-13 18:00:00 TS 17.5000 -61.5000 35 hurdat_atl main 441 395 O_____________ hurdat_atl AL021943 17.5000 -61.5000 TS 35 0 10 298
1943226N17300 1943 52 NA CS NOT_NAMED 1943-08-13 21:00:00 TS 17.7416 -61.9255 main 395 328 P_____________ AL021943 17.7416 -61.9255 TS 37 0 11 298
1943226N17300 1943 52 NA CS NOT_NAMED 1943-08-14 00:00:00 TS 18.0000 -62.5000 40 hurdat_atl main 328 232 O_____________ hurdat_atl AL021943 18.0000 -62.5000 TS 40 0 16 288
1943226N17300 1943 52 NA CS NOT_NAMED 1943-08-14 03:00:00 TS 18.2363 -63.4924 main 221 116 P_____________ AL021943 18.2363 -63.4924 TS 40 0 20 285
1943226N17300 1943 52 NA CS NOT_NAMED 1943-08-14 06:00:00 TS 18.5000 -64.5000 40 hurdat_atl main 116 69 O_____________ hurdat_atl AL021943 18.5000 -64.5000 TS 40 0 16 291
1943226N17300 1943 52 NA CS NOT_NAMED 1943-08-14 09:00:00 TS 18.8264 -65.1031 main 69 64 P_____________ AL021943 18.8264 -65.1031 TS 40 0 13 304
1943226N17300 1943 52 NA NA NOT_NAMED 1943-08-14 12:00:00 TS 19.2000 -65.6000 40 hurdat_atl main 89 89 O_____________ hurdat_atl AL021943 19.2000 -65.6000 TS 40 0 13 306
1943226N17300 1943 52 NA NA NOT_NAMED 1943-08-14 15:00:00 TS 19.5848 -66.2278 main 134 134 P_____________ AL021943 19.5848 -66.2278 TS 42 0 15 303
1943226N17300 1943 52 NA NA NOT_NAMED 1943-08-14 18:00:00 TS 20.0000 -66.9000 45 hurdat_atl main 178 178 O_____________ hurdat_atl AL021943 20.0000 -66.9000 TS 45 0 15 304
1943226N17300 1943 52 NA NA NOT_NAMED 1943-08-14 21:00:00 TS 20.4348 -67.5929 main 207 200 P_____________ AL021943 20.4348 -67.5929 TS 45 0 16 304
1943226N17300 1943 52 NA NA NOT_NAMED 1943-08-15 00:00:00 TS 20.9000 -68.3000 45 hurdat_atl main 207 207 O_____________ hurdat_atl AL021943 20.9000 -68.3000 TS 45 0 16 306
1943226N17300 1943 52 NA NA NOT_NAMED 1943-08-15 03:00:00 TS 21.3848 -69.0079 main 226 222 P_____________ AL021943 21.3848 -69.0079 TS 45 0 16 307
1943226N17300 1943 52 NA NA NOT_NAMED 1943-08-15 06:00:00 TS 21.9000 -69.7000 45 hurdat_atl main 252 252 O_____________ hurdat_atl AL021943 21.9000 -69.7000 TS 45 0 17 309
1943226N17300 1943 52 NA NA NOT_NAMED 1943-08-15 09:00:00 TS 22.4501 -70.4023 main 302 280 P_____________ AL021943 22.4501 -70.4023 TS 45 0 16 312
1943226N17300 1943 52 NA NA NOT_NAMED 1943-08-15 12:00:00 TS 23.0000 -71.0000 45 hurdat_atl main 287 287 O_____________ hurdat_atl AL021943 23.0000 -71.0000 TS 45 0 14 319
1943226N17300 1943 52 NA NA NOT_NAMED 1943-08-15 15:00:00 TS 23.5222 -71.4254 main 305 305 P_____________ AL021943 23.5222 -71.4254 TS 45 0 12 327
1943226N17300 1943 52 NA NA NOT_NAMED 1943-08-15 18:00:00 TS 24.0000 -71.7000 45 hurdat_atl main 340 340 O_____________ hurdat_atl AL021943 24.0000 -71.7000 TS 45 0 10 334
1943226N17300 1943 52 NA NA NOT_NAMED 1943-08-15 21:00:00 TS 24.4224 -71.8953 main 375 375 P_____________ AL021943 24.4224 -71.8953 TS 47 0 8 341
1943226N17300 1943 52 NA NA NOT_NAMED 1943-08-16 00:00:00 TS 24.8000 -72.0000 50 hurdat_atl main 415 415 O_____________ hurdat_atl AL021943 24.8000 -72.0000 TS 50 0 8 348
1943226N17300 1943 52 NA NA NOT_NAMED 1943-08-16 03:00:00 TS 25.1575 -72.0652 main 456 456 P_____________ AL021943 25.1575 -72.0652 TS 50 0 7 353
1943226N17300 1943 52 NA NA NOT_NAMED 1943-08-16 06:00:00 TS 25.5000 -72.1000 50 hurdat_atl main 489 489 O_____________ hurdat_atl AL021943 25.5000 -72.1000 TS 50 0 7 353
1943226N17300 1943 52 NA NA NOT_NAMED 1943-08-16 09:00:00 TS 25.8425 -72.1500 main 520 520 P_____________ AL021943 25.8425 -72.1500 TS 50 0 7 353
1943226N17300 1943 52 NA NA NOT_NAMED 1943-08-16 12:00:00 TS 26.2000 -72.2000 50 hurdat_atl main 564 564 O_____________ hurdat_atl AL021943 26.2000 -72.2000 TS 50 0 7 355
1943226N17300 1943 52 NA NA NOT_NAMED 1943-08-16 15:00:00 TS 26.5849 -72.2204 main 599 598 P_____________ AL021943 26.5849 -72.2204 TS 50 0 8 354
1943226N17300 1943 52 NA NA NOT_NAMED 1943-08-16 18:00:00 TS 27.0000 -72.3000 50 hurdat_atl main 606 601 O_____________ hurdat_atl AL021943 27.0000 -72.3000 TS 50 0 9 344
1943226N17300 1943 52 NA NA NOT_NAMED 1943-08-16 21:00:00 TS 27.4424 -72.4976 main 605 598 P_____________ AL021943 27.4424 -72.4976 TS 50 0 10 334
1943226N17300 1943 52 NA NA NOT_NAMED 1943-08-17 00:00:00 TS 27.9000 -72.8000 50 hurdat_atl main 604 595 O_____________ hurdat_atl AL021943 27.9000 -72.8000 TS 50 0 11 327
1943226N17300 1943 52 NA NA NOT_NAMED 1943-08-17 03:00:00 TS 28.3576 -73.1775 main 602 600 P_____________ AL021943 28.3576 -73.1775 TS 50 0 11 322
1943226N17300 1943 52 NA NA NOT_NAMED 1943-08-17 06:00:00 TS 28.8000 -73.6000 50 hurdat_atl main 600 600 O_____________ hurdat_atl AL021943 28.8000 -73.6000 TS 50 0 11 319
1943226N17300 1943 52 NA NA NOT_NAMED 1943-08-17 09:00:00 TS 29.2150 -74.0151 main 604 587 P_____________ AL021943 29.2150 -74.0151 TS 50 0 11 319
1943226N17300 1943 52 NA NA NOT_NAMED 1943-08-17 12:00:00 TS 29.6000 -74.4000 50 hurdat_atl main 587 543 O_____________ hurdat_atl AL021943 29.6000 -74.4000 TS 50 0 10 320
1943226N17300 1943 52 NA NA NOT_NAMED 1943-08-17 15:00:00 TS 29.9574 -74.7303 main 534 490 P_____________ AL021943 29.9574 -74.7303 TS 50 0 9 323
1943226N17300 1943 52 NA NA NOT_NAMED 1943-08-17 18:00:00 TS 30.3000 -75.0000 50 hurdat_atl main 490 452 O_____________ hurdat_atl AL021943 30.3000 -75.0000 TS 50 0 8 327
1943226N17300 1943 52 NA NA NOT_NAMED 1943-08-17 21:00:00 TS 30.6425 -75.2450 main 452 404 P_____________ AL021943 30.6425 -75.2450 TS 50 0 8 334
1943226N17300 1943 52 NA NA NOT_NAMED 1943-08-18 00:00:00 TS 31.0000 -75.4000 50 hurdat_atl main 404 363 O_____________ hurdat_atl AL021943 31.0000 -75.4000 TS 50 0 8 345
1943226N17300 1943 52 NA NA NOT_NAMED 1943-08-18 03:00:00 TS 31.3848 -75.4747 main 363 337 P_____________ AL021943 31.3848 -75.4747 TS 47 0 8 1
1943226N17300 1943 52 NA NA NOT_NAMED 1943-08-18 06:00:00 TS 31.8000 -75.4000 45 hurdat_atl main 337 303 O_____________ hurdat_atl AL021943 31.8000 -75.4000 TS 45 0 9 16
1943226N17300 1943 52 NA NA NOT_NAMED 1943-08-18 09:00:00 TS 32.2273 -75.1820 main 303 272 P_____________ AL021943 32.2273 -75.1820 TS 45 0 10 29
1943226N17300 1943 52 NA NA NOT_NAMED 1943-08-18 12:00:00 TS 32.7000 -74.8000 45 hurdat_atl main 272 255 O_____________ hurdat_atl AL021943 32.7000 -74.8000 TS 45 0 13 36
1943226N17300 1943 52 NA NA NOT_NAMED 1943-08-18 15:00:00 TS 33.2426 -74.2952 main 262 255 P_____________ AL021943 33.2426 -74.2952 TS 42 0 14 40
1943226N17300 1943 52 NA NA NOT_NAMED 1943-08-18 18:00:00 TS 33.8000 -73.7000 40 hurdat_atl main 267 267 O_____________ hurdat_atl AL021943 33.8000 -73.7000 TS 40 0 15 43
1943226N17300 1943 52 NA NA NOT_NAMED 1943-08-18 21:00:00 TS 34.3073 -73.1068 main 274 274 P_____________ AL021943 34.3073 -73.1068 TS 40 0 14 45
1943226N17300 1943 52 NA NA NOT_NAMED 1943-08-19 00:00:00 TS 34.8000 -72.5000 40 hurdat_atl main 293 293 O_____________ hurdat_atl AL021943 34.8000 -72.5000 TS 40 0 14 45
1943226N17300 1943 52 NA NA NOT_NAMED 1943-08-19 03:00:00 TS 35.3071 -71.9068 main 329 329 P_____________ AL021943 35.3071 -71.9068 TS 40 0 14 44
1943226N17300 1943 52 NA NA NOT_NAMED 1943-08-19 06:00:00 TS 35.8000 -71.3000 40 hurdat_atl main 377 377 O_____________ hurdat_atl AL021943 35.8000 -71.3000 TS 40 0 13 47
1943226N17300 1943 52 NA NA NOT_NAMED 1943-08-19 09:00:00 TS 36.2036 -70.7137 main 433 433 P_____________ AL021943 36.2036 -70.7137 TS 37 0 14 49
1943226N17300 1943 52 NA NA NOT_NAMED 1943-08-19 12:00:00 ET 36.7000 -70.0000 35 hurdat_atl main 482 476 O_____________ hurdat_atl AL021943 36.7000 -70.0000 EX 35 -4 18 48
1943226N17300 1943 52 NA NA NOT_NAMED 1943-08-19 15:00:00 ET 37.4305 -69.0353 main 478 414 P_____________ AL021943 37.4305 -69.0353 EX 32 -4 23 46
1943226N17300 1943 52 NA NA NOT_NAMED 1943-08-19 18:00:00 ET 38.3000 -67.9000 30 hurdat_atl main 418 O_____________ hurdat_atl AL021943 38.3000 -67.9000 EX 30 -4 25 46

About IBTrACS Database

This database is a web-friendly format of International Best Track Archive for Climate Stewardship (IBTrACS), a global best track data archive curated by NOAA dating back to 1842.

Updated: 2021-12-03